Time;durP1;ratioP1;P1;durP2;ratioP2;P2;SDS_P1;SDS_P2;PMS_P1;PMS_P2;Temp;Humidity;BMP_temperature;BMP_pressure;BME280_temperature;BME280_humidity;BME280_pressure;Samples;Min_cycle;Max_cycle;Signal;HPM_P1;HPM_P2
2021/07/06 00:01:11;;;;;;;3.60;3.20;;;20.70;99.90;;;;;;5072482;28;20186;-81
2021/07/06 00:03:36;;;;;;;3.20;2.67;;;20.60;99.90;;;;;;5072920;28;20205;-79
2021/07/06 00:06:02;;;;;;;3.37;2.43;;;20.60;99.90;;;;;;5072751;28;20284;-78
2021/07/06 00:08:28;;;;;;;3.60;2.57;;;20.60;99.90;;;;;;5072849;28;20647;-79
2021/07/06 00:10:54;;;;;;;2.97;2.77;;;20.60;99.90;;;;;;5074808;28;20416;-79
2021/07/06 00:13:19;;;;;;;2.87;2.63;;;20.60;99.90;;;;;;5076961;28;20191;-80
2021/07/06 00:15:45;;;;;;;2.97;2.10;;;20.60;99.90;;;;;;5055959;28;20559;-78
2021/07/06 00:18:10;;;;;;;2.63;2.43;;;20.60;99.90;;;;;;5073384;28;20181;-79
2021/07/06 00:20:36;;;;;;;3.10;2.27;;;20.50;99.90;;;;;;5072364;28;20235;-79
2021/07/06 00:23:04;;;;;;;2.60;2.40;;;20.60;99.90;;;;;;5071147;28;20200;-79
2021/07/06 00:25:30;;;;;;;3.30;2.80;;;20.60;99.90;;;;;;5073380;28;20228;-79
2021/07/06 00:27:56;;;;;;;2.97;2.67;;;20.50;99.90;;;;;;5073930;28;20429;-79
2021/07/06 00:30:23;;;;;;;7.80;2.80;;;20.60;99.90;;;;;;5075608;28;20413;-79
2021/07/06 00:32:49;;;;;;;4.57;3.07;;;20.60;99.90;;;;;;5073843;28;20446;-79
2021/07/06 00:35:15;;;;;;;3.10;2.40;;;20.60;99.90;;;;;;5075444;28;20415;-79
2021/07/06 00:37:41;;;;;;;3.70;2.27;;;20.60;99.90;;;;;;5073574;28;20428;-79
2021/07/06 00:40:07;;;;;;;3.30;2.57;;;20.60;99.90;;;;;;5056788;28;20413;-79
2021/07/06 00:42:33;;;;;;;2.57;2.27;;;20.60;99.90;;;;;;5073207;28;20230;-79
2021/07/06 00:44:58;;;;;;;3.07;2.17;;;20.60;99.90;;;;;;5074020;28;20836;-80
2021/07/06 00:47:35;;;;;;;3.53;2.60;;;20.60;99.90;;;;;;5073269;28;20191;-81
2021/07/06 00:50:03;;;;;;;4.00;2.17;;;20.60;99.90;;;;;;5073445;28;20257;-79
2021/07/06 00:52:28;;;;;;;2.77;2.30;;;20.60;99.90;;;;;;5074064;28;20455;-81
2021/07/06 00:54:54;;;;;;;6.40;2.03;;;20.60;99.90;;;;;;5073265;28;20416;-79
2021/07/06 00:57:28;;;;;;;3.30;2.53;;;20.60;99.90;;;;;;5074549;28;20642;-79
2021/07/06 00:59:59;;;;;;;2.50;2.00;;;20.60;99.90;;;;;;5070617;28;20915;-80
2021/07/06 01:02:25;;;;;;;3.10;2.50;;;20.50;99.90;;;;;;5072306;28;20472;-79
2021/07/06 01:04:52;;;;;;;1.90;1.73;;;20.50;99.90;;;;;;5071986;28;20977;-79
2021/07/06 01:07:18;;;;;;;2.33;1.80;;;20.60;99.90;;;;;;5072157;28;20194;-79
2021/07/06 01:09:47;;;;;;;2.50;2.03;;;20.60;99.90;;;;;;5071038;28;20492;-79
2021/07/06 01:12:13;;;;;;;2.33;2.03;;;20.60;99.90;;;;;;5077750;28;20910;-80
2021/07/06 01:14:39;;;;;;;2.33;1.67;;;20.50;99.90;;;;;;5079141;28;20408;-80
2021/07/06 01:17:05;;;;;;;2.80;2.00;;;20.60;99.90;;;;;;5077996;28;20464;-79
2021/07/06 01:19:31;;;;;;;2.60;2.10;;;20.50;99.90;;;;;;5079195;28;20480;-81
2021/07/06 01:22:05;;;;;;;2.20;2.00;;;20.60;99.90;;;;;;5078602;28;20248;-79
2021/07/06 01:24:31;;;;;;;3.47;2.20;;;20.60;99.90;;;;;;5078531;28;20172;-78
2021/07/06 01:26:57;;;;;;;2.87;2.30;;;20.60;99.90;;;;;;5075863;28;20984;-79
2021/07/06 01:29:23;;;;;;;3.10;2.80;;;20.60;99.90;;;;;;5078194;28;20408;-80
2021/07/06 01:31:52;;;;;;;2.23;2.00;;;20.50;99.90;;;;;;5078551;28;20217;-78
2021/07/06 01:34:18;;;;;;;2.43;2.23;;;20.50;99.90;;;;;;5078412;28;20683;-79
2021/07/06 01:36:47;;;;;;;2.77;2.23;;;20.50;99.90;;;;;;5080041;28;20405;-79
2021/07/06 01:39:19;;;;;;;3.43;2.50;;;20.50;99.90;;;;;;5078533;28;20302;-79
2021/07/06 01:41:45;;;;;;;3.73;2.30;;;20.40;99.90;;;;;;5078374;28;20435;-81
2021/07/06 01:44:22;;;;;;;3.10;2.50;;;20.40;99.90;;;;;;5079585;28;20403;-80
2021/07/06 01:46:47;;;;;;;2.23;2.03;;;20.40;99.90;;;;;;5076814;28;20204;-81
2021/07/06 01:49:14;;;;;;;4.63;2.30;;;20.30;99.90;;;;;;5078773;28;20419;-79
2021/07/06 01:51:41;;;;;;;2.40;2.20;;;20.30;99.90;;;;;;5078071;28;20185;-79
2021/07/06 01:54:07;;;;;;;4.40;2.43;;;20.30;99.90;;;;;;5077815;28;20404;-78
2021/07/06 01:56:40;;;;;;;2.90;2.53;;;20.30;99.90;;;;;;5078355;28;20403;-79
2021/07/06 01:59:06;;;;;;;4.70;2.70;;;20.20;99.90;;;;;;5076338;28;20183;-81
2021/07/06 02:01:32;;;;;;;3.13;2.80;;;20.20;99.90;;;;;;5075686;28;20439;-81
2021/07/06 02:03:58;;;;;;;2.40;2.20;;;20.20;99.90;;;;;;5077183;28;20439;-81
2021/07/06 02:06:24;;;;;;;9.63;3.60;;;20.20;99.90;;;;;;5059373;28;20454;-79
2021/07/06 02:08:50;;;;;;;3.90;3.30;;;20.10;99.90;;;;;;5077251;28;20988;-79
2021/07/06 02:11:15;;;;;;;3.30;3.00;;;20.10;99.90;;;;;;5077582;28;20235;-79
2021/07/06 02:13:41;;;;;;;3.87;3.10;;;20.10;99.90;;;;;;5076231;28;20172;-79
2021/07/06 02:16:06;;;;;;;3.90;3.03;;;20.10;99.90;;;;;;5078923;28;20661;-79
2021/07/06 02:18:32;;;;;;;3.20;2.80;;;20.10;99.90;;;;;;5077600;28;20207;-81
2021/07/06 02:21:00;;;;;;;3.67;3.23;;;20.10;99.90;;;;;;5076463;28;20307;-81
2021/07/06 02:23:27;;;;;;;3.47;2.90;;;20.10;99.90;;;;;;5076044;28;20892;-79
2021/07/06 02:25:54;;;;;;;4.00;3.13;;;20.00;99.90;;;;;;5077141;28;20500;-79
2021/07/06 02:28:21;;;;;;;8.07;3.63;;;20.00;99.90;;;;;;5074262;28;20777;-80
2021/07/06 02:30:49;;;;;;;5.83;3.37;;;20.00;99.90;;;;;;5075784;28;20406;-79
2021/07/06 02:33:17;;;;;;;3.67;3.20;;;20.00;99.90;;;;;;5076820;28;20753;-78
2021/07/06 02:35:43;;;;;;;3.60;2.93;;;20.00;99.90;;;;;;5074795;28;20446;-79
2021/07/06 02:38:10;;;;;;;3.50;3.17;;;20.00;99.90;;;;;;5073917;28;20424;-78
2021/07/06 02:40:36;;;;;;;3.33;2.83;;;20.00;99.90;;;;;;5073356;28;20792;-79
2021/07/06 02:43:02;;;;;;;3.97;3.00;;;20.00;99.90;;;;;;5075431;28;20430;-79
2021/07/06 02:45:32;;;;;;;4.17;3.27;;;20.00;99.90;;;;;;5074062;28;20450;-79
2021/07/06 02:47:58;;;;;;;3.17;2.87;;;20.00;99.90;;;;;;5075118;28;20966;-78
2021/07/06 02:50:25;;;;;;;5.23;3.20;;;20.00;99.90;;;;;;5075374;28;20402;-78
2021/07/06 02:52:51;;;;;;;3.57;3.00;;;19.90;99.90;;;;;;5074627;28;20184;-78
2021/07/06 02:55:18;;;;;;;3.20;2.77;;;19.90;99.90;;;;;;5075322;28;20509;-79
2021/07/06 02:57:44;;;;;;;3.93;3.50;;;19.90;99.90;;;;;;5075519;28;20498;-79
2021/07/06 03:00:17;;;;;;;3.33;3.03;;;19.80;99.90;;;;;;5075563;28;20868;-78
2021/07/06 03:02:46;;;;;;;3.17;2.67;;;19.80;99.90;;;;;;5074498;28;20463;-78
2021/07/06 03:05:16;;;;;;;5.10;3.63;;;19.70;99.90;;;;;;5073276;28;20414;-79
2021/07/06 03:07:43;;;;;;;3.30;2.87;;;19.70;99.90;;;;;;5074923;28;20395;-79
2021/07/06 03:10:13;;;;;;;3.80;3.40;;;19.80;99.90;;;;;;5074712;28;20410;-78
2021/07/06 03:12:41;;;;;;;4.53;4.13;;;19.70;99.90;;;;;;5072900;28;20430;-78
2021/07/06 03:15:08;;;;;;;5.20;3.67;;;19.80;99.90;;;;;;5075020;28;20499;-78
2021/07/06 03:17:33;;;;;;;3.97;3.03;;;19.80;99.90;;;;;;5073657;28;20430;-79
2021/07/06 03:20:01;;;;;;;3.87;3.53;;;19.70;99.90;;;;;;5074834;28;20406;-78
2021/07/06 03:22:27;;;;;;;5.30;3.47;;;19.70;99.90;;;;;;5074255;28;20185;-77
2021/07/06 03:24:53;;;;;;;3.47;3.17;;;19.70;99.90;;;;;;5074579;28;20460;-78
2021/07/06 03:27:19;;;;;;;3.80;3.20;;;19.80;99.90;;;;;;5074517;28;20482;-77
2021/07/06 03:29:44;;;;;;;4.10;3.57;;;19.80;99.90;;;;;;5072760;28;20172;-78
2021/07/06 03:32:11;;;;;;;3.90;3.27;;;19.80;99.90;;;;;;5072871;28;20290;-78
2021/07/06 03:34:37;;;;;;;3.93;2.87;;;19.80;99.90;;;;;;5072584;28;20164;-77
2021/07/06 03:37:03;;;;;;;6.57;3.30;;;19.80;99.90;;;;;;5072598;28;20425;-77
2021/07/06 03:39:29;;;;;;;3.60;3.30;;;19.80;99.90;;;;;;5072696;28;20402;-78
2021/07/06 03:41:54;;;;;;;4.03;3.63;;;19.80;99.90;;;;;;5087646;28;20435;-77
2021/07/06 03:44:20;;;;;;;4.17;3.40;;;19.70;99.90;;;;;;5054335;28;20652;-79
2021/07/06 03:46:45;;;;;;;4.10;3.70;;;19.80;99.90;;;;;;5070803;28;20236;-78
2021/07/06 03:49:11;;;;;;;5.80;3.60;;;19.80;99.90;;;;;;5072391;28;20366;-78
2021/07/06 03:51:36;;;;;;;4.50;3.10;;;19.80;99.90;;;;;;5073067;28;20192;-78
2021/07/06 03:54:02;;;;;;;3.93;3.53;;;19.90;99.90;;;;;;5073376;28;20187;-79
2021/07/06 03:56:28;;;;;;;4.23;3.83;;;19.90;99.90;;;;;;5073398;28;20557;-78
2021/07/06 03:58:53;;;;;;;4.03;3.23;;;19.90;99.90;;;;;;5071924;28;20206;-78
2021/07/06 04:01:19;;;;;;;4.80;3.50;;;19.90;99.90;;;;;;5073167;28;20175;-78
2021/07/06 04:03:44;;;;;;;12.03;3.80;;;20.00;99.90;;;;;;5071765;28;20669;-79
2021/07/06 04:06:10;;;;;;;4.17;3.77;;;20.00;99.90;;;;;;5071685;28;20287;-79
2021/07/06 04:08:35;;;;;;;4.77;3.97;;;20.10;99.90;;;;;;5073118;28;20180;-78
2021/07/06 04:11:04;;;;;;;4.17;3.50;;;20.10;99.90;;;;;;5072103;28;20751;-79
2021/07/06 04:13:29;;;;;;;5.03;4.10;;;20.20;99.90;;;;;;5073581;28;20172;-78
2021/07/06 04:15:55;;;;;;;5.73;4.10;;;20.20;99.90;;;;;;5073607;28;20408;-79
2021/07/06 04:18:20;;;;;;;5.30;3.80;;;20.30;99.90;;;;;;5073722;28;20178;-79
2021/07/06 04:20:46;;;;;;;4.30;3.23;;;20.30;99.90;;;;;;5072132;28;20182;-78
2021/07/06 04:23:11;;;;;;;4.20;3.60;;;20.30;99.90;;;;;;5073975;28;20193;-78
2021/07/06 04:25:37;;;;;;;4.33;2.90;;;20.30;99.90;;;;;;5072256;28;20295;-81
2021/07/06 04:28:05;;;;;;;4.20;3.47;;;20.30;99.90;;;;;;5073943;28;20696;-80
2021/07/06 04:30:31;;;;;;;6.87;3.50;;;20.40;99.90;;;;;;5073267;28;20940;-80
2021/07/06 04:32:56;;;;;;;5.10;4.20;;;20.40;99.90;;;;;;5075174;28;20495;-79
2021/07/06 04:35:22;;;;;;;3.80;3.17;;;20.40;99.90;;;;;;5055748;28;20181;-79
2021/07/06 04:37:49;;;;;;;4.47;3.47;;;20.40;99.90;;;;;;5073661;28;20178;-78
2021/07/06 04:40:16;;;;;;;4.10;3.57;;;20.40;99.90;;;;;;5073176;28;20482;-81
2021/07/06 04:42:42;;;;;;;4.07;3.30;;;20.40;99.90;;;;;;5074152;28;20477;-79
2021/07/06 04:45:08;;;;;;;3.60;3.20;;;20.40;99.90;;;;;;5074044;28;20424;-80
2021/07/06 04:47:34;;;;;;;4.10;2.93;;;20.40;99.90;;;;;;5077710;28;20488;-78
2021/07/06 04:50:00;;;;;;;3.47;3.17;;;20.40;99.90;;;;;;5077205;28;20495;-79
2021/07/06 04:52:26;;;;;;;3.40;2.87;;;20.40;99.90;;;;;;5077358;28;20443;-79
2021/07/06 04:54:51;;;;;;;3.50;3.20;;;20.30;99.90;;;;;;5077318;28;20179;-79
2021/07/06 04:57:21;;;;;;;4.50;3.33;;;20.30;99.90;;;;;;5077216;28;20172;-79
2021/07/06 04:59:48;;;;;;;6.10;4.03;;;20.30;99.90;;;;;;5076105;28;20247;-79
2021/07/06 05:02:13;;;;;;;3.80;3.50;;;20.30;99.90;;;;;;5077149;28;20434;-79
2021/07/06 05:04:39;;;;;;;5.83;3.10;;;20.40;99.90;;;;;;5077147;28;20469;-78
2021/07/06 05:07:05;;;;;;;4.83;3.60;;;20.50;99.90;;;;;;5076515;28;20209;-79
2021/07/06 05:09:32;;;;;;;4.10;3.00;;;20.70;99.90;;;;;;5077662;28;20181;-78
2021/07/06 05:11:58;;;;;;;6.30;3.47;;;20.90;99.90;;;;;;5077654;28;20535;-78
2021/07/06 05:14:32;;;;;;;5.13;3.20;;;21.10;99.90;;;;;;5078171;28;20440;-79
2021/07/06 05:16:59;;;;;;;3.60;3.30;;;21.40;99.90;;;;;;5077310;28;20183;-81
2021/07/06 05:19:25;;;;;;;3.63;3.33;;;21.60;99.90;;;;;;5077680;28;20421;-79
2021/07/06 05:21:50;;;;;;;4.07;3.37;;;21.90;99.90;;;;;;5078050;28;20434;-79
2021/07/06 05:24:16;;;;;;;4.13;2.90;;;22.00;99.90;;;;;;5078234;28;20584;-79
2021/07/06 05:26:42;;;;;;;4.57;3.37;;;22.20;99.90;;;;;;5080329;28;20199;-79
2021/07/06 05:29:07;;;;;;;3.43;3.13;;;22.50;99.90;;;;;;5078867;28;20179;-78
2021/07/06 05:31:33;;;;;;;3.53;2.83;;;22.60;99.90;;;;;;5094837;28;20570;-79
2021/07/06 05:33:59;;;;;;;3.00;2.60;;;22.90;99.90;;;;;;5074813;28;20210;-78
2021/07/06 05:36:24;;;;;;;5.27;2.60;;;22.90;99.90;;;;;;5076153;28;20255;-78
2021/07/06 05:38:50;;;;;;;4.20;3.43;;;22.90;99.90;;;;;;5077852;28;20234;-78
2021/07/06 05:41:16;;;;;;;4.03;3.00;;;23.00;99.90;;;;;;5078673;28;20184;-78
2021/07/06 05:43:45;;;;;;;3.53;3.00;;;23.20;99.90;;;;;;5078877;28;20218;-79
2021/07/06 05:46:11;;;;;;;3.00;2.70;;;23.50;99.90;;;;;;5080225;28;20526;-79
2021/07/06 05:48:37;;;;;;;3.43;3.10;;;23.60;99.90;;;;;;5080438;28;20429;-79
2021/07/06 05:51:03;;;;;;;2.70;2.40;;;23.90;99.90;;;;;;5095979;28;20492;-80
2021/07/06 05:53:28;;;;;;;2.87;2.67;;;24.10;99.90;;;;;;5080806;28;20222;-78
2021/07/06 05:55:54;;;;;;;2.83;2.57;;;24.30;99.90;;;;;;5079686;28;20611;-80
2021/07/06 05:58:20;;;;;;;2.87;2.57;;;24.50;99.90;;;;;;5076659;28;20176;-80
2021/07/06 06:00:45;;;;;;;3.83;2.93;;;24.60;99.90;;;;;;5080113;28;20192;-80
2021/07/06 06:03:11;;;;;;;4.63;2.70;;;24.60;99.90;;;;;;5080637;28;20196;-80
2021/07/06 06:05:44;;;;;;;3.63;2.00;;;24.80;99.90;;;;;;5079646;28;20207;-80
2021/07/06 06:08:15;;;;;;;3.00;2.60;;;24.90;99.90;;;;;;5081599;28;20409;-81
2021/07/06 06:10:40;;;;;;;1.80;1.70;;;24.90;99.90;;;;;;5081804;28;20409;-80
2021/07/06 06:13:06;;;;;;;2.37;2.17;;;25.00;99.90;;;;;;5079998;28;20497;-79
2021/07/06 06:15:32;;;;;;;2.30;2.10;;;24.80;99.90;;;;;;5080990;28;20590;-80
2021/07/06 06:17:57;;;;;;;5.53;2.03;;;24.60;99.90;;;;;;5080528;28;20200;-80
2021/07/06 06:20:23;;;;;;;2.70;2.03;;;24.60;99.90;;;;;;5080294;28;20168;-80
2021/07/06 06:22:49;;;;;;;2.40;2.20;;;24.80;99.90;;;;;;5081200;28;20663;-81
2021/07/06 06:25:15;;;;;;;1.97;1.73;;;25.00;99.90;;;;;;5079518;28;20173;-80
2021/07/06 06:27:41;;;;;;;2.90;1.93;;;25.20;99.90;;;;;;5081091;28;20172;-80
2021/07/06 06:30:09;;;;;;;3.87;2.07;;;25.30;99.90;;;;;;5081222;28;20398;-79
2021/07/06 06:32:34;;;;;;;4.80;2.50;;;25.60;99.90;;;;;;5075974;28;20438;-78
2021/07/06 06:35:00;;;;;;;3.93;2.00;;;25.90;99.90;;;;;;5093310;28;20791;-80
2021/07/06 06:37:25;;;;;;;2.10;1.90;;;26.00;99.90;;;;;;5076214;28;20546;-79
2021/07/06 06:39:51;;;;;;;7.27;2.23;;;26.00;99.90;;;;;;5077553;28;20517;-79
2021/07/06 06:42:17;;;;;;;1.83;1.40;;;25.90;99.90;;;;;;5076698;28;20275;-79
2021/07/06 06:44:42;;;;;;;1.50;1.40;;;25.90;99.90;;;;;;5077096;28;20245;-80
2021/07/06 06:47:08;;;;;;;1.80;1.70;;;26.00;99.90;;;;;;5077014;28;20210;-79
2021/07/06 06:49:34;;;;;;;1.60;1.43;;;26.00;99.90;;;;;;5077413;28;20168;-79
2021/07/06 06:52:00;;;;;;;2.27;2.00;;;26.10;99.90;;;;;;5076259;28;20321;-80
2021/07/06 06:54:30;;;;;;;3.90;2.20;;;26.00;99.90;;;;;;5092516;28;20471;-79
2021/07/06 06:56:58;;;;;;;3.70;2.50;;;26.10;99.90;;;;;;5059260;28;20175;-79
2021/07/06 06:59:29;;;;;;;3.30;2.20;;;26.20;99.90;;;;;;5076597;28;20414;-79
2021/07/06 07:04:39;;;;;;;2.07;1.87;;;26.20;99.90;;;;;;5075890;28;20487;-79
2021/07/06 07:07:05;;;;;;;2.10;1.80;;;26.20;99.90;;;;;;5074377;28;21000;-80
2021/07/06 07:09:30;;;;;;;1.77;1.57;;;26.20;99.90;;;;;;5074075;28;20176;-80
2021/07/06 07:11:56;;;;;;;1.77;1.67;;;26.30;99.90;;;;;;5075321;28;20195;-78
2021/07/06 07:14:21;;;;;;;1.83;1.23;;;26.30;99.90;;;;;;5075378;28;20172;-78
2021/07/06 07:16:48;;;;;;;3.70;1.80;;;26.30;99.90;;;;;;5074598;28;20172;-79
2021/07/06 07:19:14;;;;;;;2.10;1.90;;;26.20;99.90;;;;;;5075671;28;20172;-79
2021/07/06 07:21:40;;;;;;;2.53;2.33;;;26.20;99.90;;;;;;5074944;28;20464;-80
2021/07/06 07:24:05;;;;;;;2.10;1.87;;;26.20;99.90;;;;;;5077845;28;20406;-80
2021/07/06 07:26:31;;;;;;;2.80;2.10;;;26.30;99.90;;;;;;5075819;28;20670;-79
2021/07/06 07:28:57;;;;;;;2.10;1.90;;;26.30;99.90;;;;;;5075267;28;20627;-79
2021/07/06 07:31:22;;;;;;;1.60;1.40;;;26.50;99.90;;;;;;5075819;28;20164;-80
2021/07/06 07:33:48;;;;;;;2.50;1.90;;;26.50;99.90;;;;;;5076412;28;20410;-80
2021/07/06 07:36:14;;;;;;;2.40;1.83;;;26.70;99.90;;;;;;5075638;28;20176;-78
2021/07/06 07:38:39;;;;;;;1.67;1.33;;;26.80;99.90;;;;;;5074428;28;20183;-79
2021/07/06 07:41:05;;;;;;;1.80;1.70;;;26.60;99.90;;;;;;5074300;28;20182;-81
2021/07/06 07:43:31;;;;;;;1.60;1.50;;;26.60;99.90;;;;;;5056574;28;20188;-80
2021/07/06 07:45:56;;;;;;;1.50;1.40;;;26.70;99.90;;;;;;5084694;28;20199;-79
2021/07/06 07:48:22;;;;;;;2.03;1.83;;;26.70;99.90;;;;;;5080271;28;20187;-79
2021/07/06 07:50:48;;;;;;;2.93;2.73;;;26.50;99.90;;;;;;5074773;28;20176;-80
2021/07/06 07:53:14;;;;;;;1.97;1.70;;;26.30;99.90;;;;;;5076207;28;20667;-78
2021/07/06 07:55:39;;;;;;;1.80;1.70;;;26.30;99.90;;;;;;5076087;28;20168;-80
2021/07/06 07:58:05;;;;;;;2.00;1.80;;;26.30;99.90;;;;;;5075969;28;20816;-80
2021/07/06 08:00:30;;;;;;;5.10;2.10;;;26.40;99.90;;;;;;5076189;28;20251;-80
2021/07/06 08:02:59;;;;;;;2.23;2.03;;;26.40;99.90;;;;;;5076211;28;20564;-80
2021/07/06 08:05:25;;;;;;;3.50;2.37;;;26.50;99.90;;;;;;5077239;28;20167;-81
2021/07/06 08:07:51;;;;;;;2.17;1.97;;;26.60;99.90;;;;;;5076557;28;20411;-79
2021/07/06 08:10:16;;;;;;;2.70;2.50;;;26.50;99.90;;;;;;5075836;28;20432;-80
2021/07/06 08:12:42;;;;;;;2.60;2.40;;;26.60;99.90;;;;;;5074512;28;20207;-79
2021/07/06 08:15:08;;;;;;;2.20;2.00;;;26.50;99.90;;;;;;5075071;28;20658;-80
2021/07/06 08:17:33;;;;;;;2.30;2.10;;;26.40;99.90;;;;;;5078378;28;20183;-79
2021/07/06 08:20:01;;;;;;;2.03;1.83;;;26.40;99.90;;;;;;5079108;28;20176;-79
2021/07/06 08:22:28;;;;;;;2.13;1.90;;;26.50;99.90;;;;;;5073721;28;20245;-79
2021/07/06 08:24:54;;;;;;;7.83;5.87;;;26.50;99.90;;;;;;5075967;28;20433;-80
2021/07/06 08:27:19;;;;;;;4.87;3.20;;;26.50;99.90;;;;;;5075764;28;20472;-80
2021/07/06 08:29:45;;;;;;;1.50;1.23;;;26.60;99.90;;;;;;5074444;28;20410;-79
2021/07/06 08:32:11;;;;;;;2.13;1.60;;;26.50;99.90;;;;;;5075896;28;20188;-80
2021/07/06 08:34:36;;;;;;;2.27;1.40;;;26.40;99.90;;;;;;5074614;28;20637;-79
2021/07/06 08:37:02;;;;;;;2.40;1.70;;;26.40;99.90;;;;;;5056257;28;20600;-79
2021/07/06 08:39:28;;;;;;;3.63;2.07;;;26.50;99.90;;;;;;5076149;28;20312;-80
2021/07/06 08:41:54;;;;;;;2.13;1.60;;;26.50;99.90;;;;;;5075283;28;20188;-79
2021/07/06 08:44:21;;;;;;;1.73;1.40;;;26.60;99.90;;;;;;5089472;28;20441;-79
2021/07/06 08:46:48;;;;;;;1.83;1.73;;;26.50;99.90;;;;;;5070473;28;20478;-78
2021/07/06 08:49:18;;;;;;;1.90;1.23;;;26.50;99.90;;;;;;5075173;28;20893;-78
2021/07/06 08:51:47;;;;;;;1.60;1.50;;;26.60;99.90;;;;;;5072340;28;20430;-78
2021/07/06 08:54:12;;;;;;;2.53;1.60;;;26.60;99.90;;;;;;5072657;28;20782;-79
2021/07/06 08:56:38;;;;;;;1.50;1.40;;;26.60;99.90;;;;;;5072167;28;20411;-79
2021/07/06 08:59:04;;;;;;;2.20;1.93;;;26.60;99.90;;;;;;5089062;28;20623;-79
2021/07/06 09:01:30;;;;;;;1.60;1.50;;;26.50;99.90;;;;;;5072438;28;20199;-79
2021/07/06 09:03:59;;;;;;;1.80;1.70;;;26.30;99.90;;;;;;5072817;28;20525;-80
2021/07/06 09:06:26;;;;;;;1.70;1.60;;;26.30;99.90;;;;;;5075193;28;20434;-77
2021/07/06 09:09:19;;;;;;;1.57;1.47;;;26.30;99.90;;;;;;5074355;28;20406;-79
2021/07/06 09:11:47;;;;;;;1.50;1.40;;;26.30;99.90;;;;;;5073584;28;20418;-79
2021/07/06 09:14:14;;;;;;;1.53;1.37;;;26.30;99.90;;;;;;5074037;28;20775;-79
2021/07/06 09:16:39;;;;;;;2.30;2.10;;;26.20;99.90;;;;;;5074265;28;20420;-80
2021/07/06 09:19:23;;;;;;;2.33;2.00;;;26.20;99.90;;;;;;5074898;28;20490;-80
2021/07/06 09:22:12;;;;;;;1.53;1.43;;;26.20;99.90;;;;;;5075081;28;20207;-80
2021/07/06 09:24:39;;;;;;;1.70;1.60;;;26.20;99.90;;;;;;5075072;28;20414;-79
2021/07/06 09:27:30;;;;;;;1.80;1.53;;;26.30;99.90;;;;;;5074919;28;20442;-80
2021/07/06 09:30:10;;;;;;;2.80;1.60;;;26.30;99.90;;;;;;5075817;28;20410;-80
2021/07/06 09:32:38;;;;;;;2.00;1.37;;;26.40;99.90;;;;;;5074790;28;20932;-78
2021/07/06 09:35:09;;;;;;;1.97;1.47;;;26.40;99.90;;;;;;5077761;28;20394;-79
2021/07/06 09:37:49;;;;;;;1.50;1.40;;;26.40;99.90;;;;;;5079613;28;20406;-80
2021/07/06 09:40:23;;;;;;;2.50;2.30;;;26.40;99.90;;;;;;5079601;28;20417;-79
2021/07/06 09:43:27;;;;;;;2.53;1.30;;;26.50;99.90;;;;;;5080358;28;20955;-80
2021/07/06 09:45:56;;;;;;;4.60;1.77;;;26.60;99.90;;;;;;5079710;28;20534;-80
2021/07/06 09:48:22;;;;;;;1.77;1.50;;;26.60;99.90;;;;;;5075556;28;20434;-79
2021/07/06 09:50:51;;;;;;;1.70;1.50;;;26.50;99.90;;;;;;5076634;28;20902;-79
2021/07/06 09:53:30;;;;;;;3.10;2.00;;;26.60;99.90;;;;;;5078674;28;20445;-79
2021/07/06 09:55:57;;;;;;;1.40;1.23;;;26.50;99.90;;;;;;5079532;28;20410;-80
2021/07/06 09:58:23;;;;;;;2.03;1.10;;;26.60;99.90;;;;;;5077447;28;20468;-80
2021/07/06 10:00:51;;;;;;;3.90;1.30;;;26.60;99.90;;;;;;5077424;28;20410;-77
2021/07/06 10:03:17;;;;;;;1.87;1.43;;;26.70;99.90;;;;;;5079383;28;20974;-80
2021/07/06 10:05:44;;;;;;;1.23;1.10;;;26.70;99.90;;;;;;5079533;28;20802;-80
2021/07/06 10:08:10;;;;;;;1.97;1.80;;;26.80;99.90;;;;;;5079869;28;20406;-78
2021/07/06 10:10:37;;;;;;;1.80;1.57;;;26.80;99.90;;;;;;5076682;28;20406;-79
2021/07/06 10:13:02;;;;;;;1.50;1.03;;;26.80;99.90;;;;;;5078629;28;20422;-79
2021/07/06 10:15:28;;;;;;;1.60;1.40;;;26.80;99.90;;;;;;5076619;28;20407;-79
2021/07/06 10:17:53;;;;;;;1.30;1.03;;;26.90;99.90;;;;;;5092645;28;20187;-79
2021/07/06 10:20:24;;;;;;;1.30;1.20;;;27.00;99.90;;;;;;5058245;28;20172;-79
2021/07/06 10:22:52;;;;;;;1.70;1.10;;;26.90;99.90;;;;;;5076238;28;20192;-79
2021/07/06 10:25:22;;;;;;;2.50;1.10;;;26.90;99.90;;;;;;5075930;28;20460;-79
2021/07/06 10:27:54;;;;;;;1.73;1.33;;;27.00;99.90;;;;;;5075666;28;20407;-79
2021/07/06 10:30:21;;;;;;;1.43;1.30;;;27.00;99.90;;;;;;5058923;28;20419;-80
2021/07/06 10:32:58;;;;;;;2.00;1.50;;;27.00;99.90;;;;;;5077939;28;20770;-79
2021/07/06 10:35:42;;;;;;;12.33;1.50;;;27.10;99.90;;;;;;5078059;28;20420;-80
2021/07/06 10:38:26;;;;;;;2.63;1.20;;;27.10;99.90;;;;;;5078204;28;20403;-78
2021/07/06 10:40:52;;;;;;;1.70;1.30;;;27.10;99.90;;;;;;5074886;28;20980;-81
2021/07/06 10:43:47;;;;;;;1.57;1.23;;;27.10;99.90;;;;;;5075434;28;20509;-80
2021/07/06 10:46:19;;;;;;;1.30;1.10;;;27.20;99.90;;;;;;5075661;28;20471;-79
2021/07/06 10:49:01;;;;;;;5.63;2.17;;;27.20;99.90;;;;;;5075562;28;20849;-79
2021/07/06 10:51:38;;;;;;;2.93;1.63;;;27.40;99.90;;;;;;5074850;28;20483;-79
2021/07/06 10:54:26;;;;;;;1.40;1.30;;;27.40;99.90;;;;;;5075570;28;20492;-80
2021/07/06 10:56:54;;;;;;;1.60;1.50;;;27.50;99.90;;;;;;5077136;28;20481;-79
2021/07/06 10:59:35;;;;;;;2.53;1.60;;;27.40;99.90;;;;;;5077653;28;21009;-79
2021/07/06 11:02:13;;;;;;;2.80;1.50;;;27.40;99.90;;;;;;5076831;28;20795;-78
2021/07/06 11:04:50;;;;;;;1.73;1.13;;;27.40;99.90;;;;;;5075262;28;20406;-79
2021/07/06 11:07:34;;;;;;;1.57;1.47;;;27.50;99.90;;;;;;5076381;28;20936;-78
2021/07/06 11:10:04;;;;;;;1.30;1.20;;;27.50;99.90;;;;;;5074779;28;20410;-79
2021/07/06 11:12:51;;;;;;;2.00;1.80;;;27.60;99.90;;;;;;5074414;28;20429;-79
2021/07/06 11:15:20;;;;;;;2.27;1.40;;;27.70;99.90;;;;;;5074274;28;20463;-79
2021/07/06 11:17:50;;;;;;;1.93;1.40;;;27.80;99.90;;;;;;5076135;28;20409;-78
2021/07/06 11:20:48;;;;;;;1.87;1.60;;;27.80;99.90;;;;;;5073552;28;20416;-79
2021/07/06 11:23:31;;;;;;;1.87;1.67;;;27.80;99.90;;;;;;5073817;28;20434;-80
2021/07/06 11:26:04;;;;;;;2.30;1.20;;;27.80;99.90;;;;;;5074924;28;20454;-78
2021/07/06 11:28:31;;;;;;;1.70;1.30;;;27.70;99.90;;;;;;5072582;28;20418;-79
2021/07/06 11:31:01;;;;;;;1.50;1.40;;;27.70;99.90;;;;;;5074304;28;20425;-79
2021/07/06 11:33:30;;;;;;;1.50;1.40;;;27.70;99.90;;;;;;5074667;28;20490;-78
2021/07/06 11:36:04;;;;;;;1.87;1.40;;;27.90;99.90;;;;;;5075687;28;20412;-79
2021/07/06 11:38:39;;;;;;;1.73;1.63;;;27.90;99.90;;;;;;5074907;28;20509;-80
2021/07/06 11:41:06;;;;;;;3.20;1.63;;;27.90;99.90;;;;;;5075704;28;20501;-79
2021/07/06 11:43:33;;;;;;;1.80;1.60;;;27.80;99.90;;;;;;5075019;28;20406;-79
2021/07/06 11:46:01;;;;;;;1.97;1.60;;;27.80;99.90;;;;;;5075492;28;20479;-79
2021/07/06 11:48:29;;;;;;;2.97;2.50;;;27.90;99.90;;;;;;5076127;28;20979;-79
2021/07/06 11:50:56;;;;;;;1.50;1.40;;;27.90;99.90;;;;;;5075145;28;20836;-80
2021/07/06 11:53:37;;;;;;;1.87;1.30;;;28.00;99.90;;;;;;5075097;28;21008;-79
2021/07/06 11:56:04;;;;;;;1.93;1.40;;;28.10;99.90;;;;;;5076349;28;20409;-80
2021/07/06 11:58:31;;;;;;;1.50;1.20;;;28.20;99.90;;;;;;5076364;28;20417;-80
2021/07/06 12:01:01;;;;;;;1.43;1.27;;;28.00;99.90;;;;;;5076045;28;20414;-80
2021/07/06 12:03:28;;;;;;;1.50;1.40;;;27.90;99.90;;;;;;5073793;28;20437;-80
2021/07/06 12:06:05;;;;;;;1.40;1.30;;;27.70;99.90;;;;;;5075080;28;20442;-80
2021/07/06 12:08:39;;;;;;;1.60;1.47;;;27.80;99.90;;;;;;5077743;28;20398;-80
2021/07/06 12:11:10;;;;;;;1.90;1.77;;;27.80;99.90;;;;;;5078371;28;20405;-80
2021/07/06 12:13:42;;;;;;;2.30;1.73;;;27.80;99.90;;;;;;5075437;28;20823;-79
2021/07/06 12:16:18;;;;;;;6.43;1.50;;;27.70;99.90;;;;;;5075617;28;20406;-79
2021/07/06 12:18:57;;;;;;;5.30;2.20;;;27.80;99.90;;;;;;5076746;28;20430;-80
2021/07/06 12:21:25;;;;;;;1.40;1.30;;;27.90;99.90;;;;;;5074265;28;20414;-79
2021/07/06 12:23:50;;;;;;;1.60;1.33;;;28.00;99.90;;;;;;5076727;28;20406;-80
2021/07/06 12:26:17;;;;;;;2.87;2.37;;;28.00;99.90;;;;;;5060510;28;20528;-80
2021/07/06 12:28:46;;;;;;;2.40;2.10;;;27.90;99.80;;;;;;5077358;28;20259;-79
2021/07/06 12:31:27;;;;;;;3.30;1.63;;;27.90;99.90;;;;;;5084257;28;20411;-80
2021/07/06 12:34:20;;;;;;;1.77;1.63;;;27.90;99.90;;;;;;5078994;28;20398;-79
2021/07/06 12:36:58;;;;;;;1.50;1.40;;;28.00;99.90;;;;;;5053274;28;20422;-80
2021/07/06 12:39:30;;;;;;;1.27;1.17;;;28.00;99.30;;;;;;5059596;28;20425;-80
2021/07/06 12:42:05;;;;;;;1.40;1.27;;;28.10;98.10;;;;;;5074963;28;20484;-79
2021/07/06 12:44:54;;;;;;;1.30;1.20;;;28.10;97.40;;;;;;5073002;28;20410;-79
2021/07/06 12:47:26;;;;;;;1.53;1.43;;;28.30;97.40;;;;;;5072536;28;20487;-79
2021/07/06 12:49:56;;;;;;;1.90;1.60;;;28.40;97.90;;;;;;5074026;28;20427;-79
2021/07/06 12:52:33;;;;;;;1.40;1.07;;;28.50;97.30;;;;;;5072402;28;20430;-79
2021/07/06 12:55:09;;;;;;;1.23;1.13;;;28.40;96.30;;;;;;5074008;28;20414;-78
2021/07/06 12:57:35;;;;;;;1.50;1.40;;;28.30;96.50;;;;;;5076119;28;20410;-79